Strona główna
METAR-TAF:

METAR-TAF

Lotnisko :

São Luís, Maranhão, Brazylia

Szerokość geograficzna: 02-36S, Długość geograficzna: 044-14W, wysokość: 53 m

Aktualna obserwacja pogody

Raport powstał 1 godzina i 3 minut temu, godzina 13:00 UTC
Wiatr 16 kt od północny wschód
Temperatura 30°C
Wilgotność 70%
Ciśnienie 1011 hPa
Widzialność 10 km lub więcej
Przerywane chmury na wysokości 2000 ft

METAR: SBSL 161300Z 05016KT 9999 BKN020 30/24 Q1011

czas: 11:03 (14:03 UTC)

Prognoza

Raport powstał 5 godziny i 3 minut temu, godzina 09:00 UTC
Prognoza ważna od 16 godzina 12 UTC do 17 godzina 12 UTC
Wiatr 10 kt od północny wschód
Widzialność 10 km lub więcej
Rozproszone chmury na wysokości 2000 ft

TAF: SBSL 160900Z 1612/1712 04010KT 9999 SCT020 TX31/1616Z TN26/1708Z RMK PHD

Obserwacja i prognoza pogody dla ponad 4000 lotnisk (raport METAR i TAF).

Dostępne stacje oznaczono żółtymi i czerwonymi punktami na mapie.

Najedź kursorem aby zobaczyć nazwę stacji.

Kliknij aby zobaczyć obserwacje i prognozy pogody.

Aby zmienić mapę: kliknij na zielony przycisk z czarnym krzyżykiem, aby powiększyć; na zielony przycisk z myślnikiem, aby pomniejszyć; na zielone strzałki, aby przejść do map sąsiednich.


METAR-TAF: